Time;durP1;ratioP1;P1;durP2;ratioP2;P2;SDS_P1;SDS_P2;PMS_P1;PMS_P2;Temp;Humidity;BMP_temperature;BMP_pressure;BME280_temperature;BME280_humidity;BME280_pressure;Samples;Min_cycle;Max_cycle;Signal;HPM_P1;HPM_P2
2023/08/17 00:01:28;;;;;;;4.47;2.15;;;;;;;18.50;88.28;101863.75;5050388;28;20029;-75
2023/08/17 00:03:53;;;;;;;4.85;2.60;;;;;;;18.46;88.57;101864.03;5050965;28;20025;-75
2023/08/17 00:06:19;;;;;;;9.82;2.67;;;;;;;18.46;88.64;101861.38;5050601;28;20033;-75
2023/08/17 00:08:44;;;;;;;7.38;2.55;;;;;;;18.44;88.53;101857.16;5051962;28;20020;-75
2023/08/17 00:11:10;;;;;;;5.15;2.70;;;;;;;18.42;88.49;101851.13;5028115;28;20367;-75
2023/08/17 00:13:35;;;;;;;6.47;2.58;;;;;;;18.38;88.85;101849.69;5032087;28;20067;-74
2023/08/17 00:16:01;;;;;;;4.40;2.00;;;;;;;18.37;89.25;101850.69;5030709;28;20119;-74
2023/08/17 00:18:27;;;;;;;7.20;2.35;;;;;;;18.32;88.98;101850.25;5049399;28;20087;-74
2023/08/17 00:20:52;;;;;;;4.50;2.30;;;;;;;18.34;89.27;101858.97;5050734;28;20424;-75
2023/08/17 00:23:18;;;;;;;4.35;2.33;;;;;;;18.30;89.53;101852.22;5050786;28;20469;-75
2023/08/17 00:25:43;;;;;;;4.30;2.33;;;;;;;18.28;89.08;101849.69;5050736;28;20025;-75
2023/08/17 00:28:09;;;;;;;4.22;2.00;;;;;;;18.26;89.60;101845.50;5033383;28;20022;-75
2023/08/17 00:30:36;;;;;;;5.78;2.55;;;;;;;18.27;89.34;101847.19;5037160;28;20029;-75
2023/08/17 00:33:02;;;;;;;5.40;2.42;;;;;;;18.20;89.36;101852.22;5036817;28;20047;-75
2023/08/17 00:35:28;;;;;;;6.95;2.50;;;;;;;18.14;89.59;101845.63;5052034;28;20746;-75
2023/08/17 00:37:53;;;;;;;7.78;2.50;;;;;;;18.09;89.86;101845.19;5052309;28;20024;-74
2023/08/17 00:40:19;;;;;;;7.05;2.67;;;;;;;18.06;90.06;101849.97;5049502;28;20543;-75
2023/08/17 00:42:44;;;;;;;4.90;2.50;;;;;;;18.02;90.14;101849.41;5048986;28;20125;-75
2023/08/17 00:45:10;;;;;;;4.68;2.67;;;;;;;17.97;90.47;101851.59;5028129;28;20116;-78
2023/08/17 00:47:35;;;;;;;9.35;2.63;;;;;;;17.94;90.61;101851.88;5029413;28;20058;-79
2023/08/17 00:50:01;;;;;;;4.13;2.30;;;;;;;17.93;90.83;101852.84;5032330;28;20364;-79
2023/08/17 00:52:26;;;;;;;6.88;2.80;;;;;;;17.91;90.80;101848.66;5032479;28;20033;-78
2023/08/17 00:54:52;;;;;;;6.70;2.45;;;;;;;17.91;90.71;101857.47;5041767;28;20088;-79
2023/08/17 00:57:19;;;;;;;6.45;2.38;;;;;;;17.94;91.01;101857.22;5032142;28;20033;-78
2023/08/17 00:59:46;;;;;;;4.57;2.10;;;;;;;17.96;90.90;101857.91;5031053;28;20032;-78
2023/08/17 01:02:11;;;;;;;5.10;2.35;;;;;;;17.92;90.70;101858.31;5011325;28;20126;-78
2023/08/17 01:04:40;;;;;;;4.63;2.33;;;;;;;17.92;90.39;101859.16;5037955;28;20025;-78
2023/08/17 01:07:05;;;;;;;5.38;2.45;;;;;;;17.88;90.76;101865.75;5041438;28;20112;-78
2023/08/17 01:09:31;;;;;;;5.45;2.45;;;;;;;17.89;90.91;101874.56;5010797;28;20024;-78
2023/08/17 01:12:09;;;;;;;4.22;2.40;;;;;;;17.87;91.12;101866.72;5045783;28;20021;-78
2023/08/17 01:15:08;;;;;;;6.78;2.45;;;;;;;17.90;90.80;101861.13;5048159;28;20431;-78
2023/08/17 01:17:43;;;;;;;8.93;2.78;;;;;;;17.82;91.17;101858.31;5049186;28;20648;-78
2023/08/17 01:20:12;;;;;;;6.22;2.83;;;;;;;17.84;91.43;101856.34;5030872;28;20025;-78
2023/08/17 01:22:42;;;;;;;4.95;2.30;;;;;;;17.84;91.12;101862.50;5036113;28;20028;-78
2023/08/17 01:25:10;;;;;;;4.30;2.45;;;;;;;17.81;91.76;101851.28;5050941;28;20036;-78
2023/08/17 01:27:44;;;;;;;4.57;2.60;;;;;;;17.74;91.80;101851.00;5035813;28;20025;-79
2023/08/17 01:30:11;;;;;;;4.38;2.42;;;;;;;17.71;92.06;101845.09;5047819;28;20510;-79
2023/08/17 01:33:00;;;;;;;6.03;2.60;;;;;;;17.73;91.75;101848.47;5047745;28;20036;-78
2023/08/17 01:35:29;;;;;;;6.72;3.47;;;;;;;17.70;92.18;101838.09;5038678;28;20493;-78
2023/08/17 01:38:03;;;;;;;7.22;2.70;;;;;;;17.68;92.08;101840.06;5024599;28;20136;-78
2023/08/17 01:40:31;;;;;;;5.82;2.50;;;;;;;17.66;92.37;101844.66;5049151;28;20025;-78
2023/08/17 01:42:58;;;;;;;8.45;2.70;;;;;;;17.67;92.70;101838.38;5049169;28;20025;-78
2023/08/17 01:45:24;;;;;;;6.63;3.10;;;;;;;17.63;93.11;101834.25;5046946;28;20025;-79
2023/08/17 01:47:50;;;;;;;7.65;3.00;;;;;;;17.60;93.15;101831.84;5049723;28;20045;-79
2023/08/17 01:50:15;;;;;;;7.22;2.55;;;;;;;17.58;93.33;101833.81;5049282;28;20090;-78
2023/08/17 01:52:43;;;;;;;7.22;2.65;;;;;;;17.59;93.32;101830.16;5032746;28;20124;-79
2023/08/17 01:55:12;;;;;;;6.43;2.50;;;;;;;17.62;93.50;101832.59;5029950;28;20492;-78
2023/08/17 01:57:40;;;;;;;6.13;2.88;;;;;;;17.58;93.68;101831.13;5031588;28;20482;-78
2023/08/17 02:00:10;;;;;;;4.57;2.60;;;;;;;17.58;93.67;101831.13;5036562;28;20021;-78
2023/08/17 02:02:36;;;;;;;7.55;2.67;;;;;;;17.60;93.74;101829.19;5050077;28;20025;-79
2023/08/17 02:05:02;;;;;;;9.30;3.00;;;;;;;17.57;93.85;101826.78;5049021;28;20090;-78
2023/08/17 02:07:28;;;;;;;5.97;3.03;;;;;;;17.55;93.94;101834.91;5049483;28;20266;-79
2023/08/17 02:09:53;;;;;;;8.80;3.17;;;;;;;17.52;93.80;101836.03;5048123;28;20083;-78
2023/08/17 02:12:19;;;;;;;7.95;3.05;;;;;;;17.55;94.04;101846.41;5040854;28;20048;-78
2023/08/17 02:14:44;;;;;;;8.55;3.20;;;;;;;17.54;93.92;101843.88;5025921;28;20079;-79
2023/08/17 02:17:09;;;;;;;5.70;3.10;;;;;;;17.49;94.16;101849.59;5029811;28;20363;-79
2023/08/17 02:19:35;;;;;;;7.38;3.13;;;;;;;17.53;94.27;101848.34;5040531;28;20087;-78
2023/08/17 02:22:01;;;;;;;7.35;3.25;;;;;;;17.50;93.90;101848.63;5037236;28;20036;-79
2023/08/17 02:24:26;;;;;;;5.72;3.08;;;;;;;17.50;93.77;101851.28;5009880;28;20359;-79
2023/08/17 02:26:52;;;;;;;8.02;3.10;;;;;;;17.50;93.69;101848.63;5024399;28;20025;-79
2023/08/17 02:29:17;;;;;;;5.25;2.78;;;;;;;17.53;93.61;101853.69;5036514;28;20025;-78
2023/08/17 02:31:43;;;;;;;4.78;2.53;;;;;;;17.52;93.44;101841.34;5022216;28;20538;-78
2023/08/17 02:34:09;;;;;;;8.30;2.92;;;;;;;17.52;93.20;101840.50;5045272;28;20430;-79
2023/08/17 02:36:35;;;;;;;6.85;2.80;;;;;;;17.50;93.52;101843.31;5049470;28;20025;-79
2023/08/17 02:39:00;;;;;;;7.82;2.95;;;;;;;17.48;93.43;101839.94;5029603;28;20029;-78
2023/08/17 02:41:25;;;;;;;5.75;2.58;;;;;;;17.51;93.38;101830.84;5026773;28;20021;-79
2023/08/17 02:43:51;;;;;;;8.57;2.80;;;;;;;17.52;92.87;101841.34;5059583;28;20040;-79
2023/08/17 02:46:16;;;;;;;7.50;2.63;;;;;;;17.51;93.08;101834.34;5040018;28;20410;-79
2023/08/17 02:48:44;;;;;;;5.38;2.65;;;;;;;17.49;92.90;101838.97;5009759;28;20079;-79
2023/08/17 02:51:09;;;;;;;4.45;2.53;;;;;;;17.50;92.84;101837.97;5010500;28;20026;-79
2023/08/17 02:53:34;;;;;;;6.50;2.60;;;;;;;17.47;93.17;101832.09;5042201;28;20025;-79
2023/08/17 02:56:00;;;;;;;4.53;2.42;;;;;;;17.43;93.19;101828.84;5049266;28;20385;-79
2023/08/17 02:58:25;;;;;;;5.75;2.88;;;;;;;17.44;93.26;101827.88;5039595;28;20036;-79
2023/08/17 03:00:52;;;;;;;6.07;2.50;;;;;;;17.44;92.69;101843.84;5035852;28;20032;-79
2023/08/17 03:03:17;;;;;;;6.97;2.65;;;;;;;17.40;92.38;101828.28;5039385;28;20125;-78
2023/08/17 03:05:42;;;;;;;5.85;2.50;;;;;;;17.39;92.72;101824.78;5027422;28;20521;-79
2023/08/17 03:08:08;;;;;;;5.97;2.42;;;;;;;17.42;92.26;101829.00;5040037;28;20112;-78
2023/08/17 03:10:34;;;;;;;6.20;2.40;;;;;;;17.37;91.96;101832.06;5048844;28;20047;-78
2023/08/17 03:12:59;;;;;;;4.22;2.55;;;;;;;17.36;92.24;101824.22;5049458;28;20405;-78
2023/08/17 03:15:24;;;;;;;6.38;2.47;;;;;;;17.37;91.46;101823.22;5047977;28;20032;-79
2023/08/17 03:17:50;;;;;;;6.15;2.42;;;;;;;17.35;91.99;101833.16;5048394;28;20029;-78
2023/08/17 03:20:15;;;;;;;5.20;2.20;;;;;;;17.33;91.59;101824.47;5031000;28;20018;-79
2023/08/17 03:22:44;;;;;;;5.43;2.50;;;;;;;17.28;92.39;101827.53;5028041;28;20030;-78
2023/08/17 03:25:09;;;;;;;8.88;3.10;;;;;;;17.25;93.20;101826.97;5037913;28;20421;-79
2023/08/17 03:27:34;;;;;;;5.65;2.80;;;;;;;17.23;93.77;101822.63;5046525;28;20039;-79
2023/08/17 03:30:00;;;;;;;5.45;2.55;;;;;;;17.24;93.73;101826.13;5028372;28;20119;-78
2023/08/17 03:32:25;;;;;;;5.25;2.53;;;;;;;17.22;93.95;101820.09;5039970;28;20031;-78
2023/08/17 03:34:51;;;;;;;6.50;2.30;;;;;;;17.18;94.16;101823.97;5051481;28;20028;-79
2023/08/17 03:37:16;;;;;;;7.72;2.30;;;;;;;17.22;94.53;101828.06;5032018;28;20022;-79
2023/08/17 03:39:44;;;;;;;6.18;2.70;;;;;;;17.16;94.06;101823.25;5031481;28;20115;-79
2023/08/17 03:42:10;;;;;;;6.90;2.95;;;;;;;17.12;94.65;101821.84;5032599;28;20104;-79
2023/08/17 03:44:35;;;;;;;5.95;2.97;;;;;;;17.11;94.70;101814.84;5037764;28;20128;-79
2023/08/17 03:47:01;;;;;;;5.47;2.50;;;;;;;17.11;94.77;101821.00;5050714;28;20061;-78
2023/08/17 03:49:26;;;;;;;5.40;2.60;;;;;;;17.03;94.76;101822.63;5052474;28;20029;-79
2023/08/17 03:51:52;;;;;;;7.68;2.70;;;;;;;17.06;95.57;101830.34;5051710;28;20476;-79
2023/08/17 03:54:17;;;;;;;4.72;2.60;;;;;;;16.97;95.14;101820.50;5033853;28;20477;-79
2023/08/17 03:56:42;;;;;;;7.13;2.75;;;;;;;16.88;95.34;101830.13;5050190;28;20116;-79
2023/08/17 03:59:08;;;;;;;7.00;3.10;;;;;;;16.81;95.95;101828.91;5051956;28;20477;-78
2023/08/17 04:01:33;;;;;;;6.15;2.90;;;;;;;16.88;95.82;101843.41;5052563;28;20084;-78
2023/08/17 04:03:59;;;;;;;5.47;2.67;;;;;;;16.86;95.69;101838.22;5050737;28;20021;-78
2023/08/17 04:06:24;;;;;;;5.43;2.80;;;;;;;16.92;95.52;101853.66;5051068;28;20477;-78
2023/08/17 04:08:50;;;;;;;3.92;2.60;;;;;;;16.83;95.44;101850.94;5042761;28;20237;-79
2023/08/17 04:11:15;;;;;;;7.93;3.05;;;;;;;16.79;96.00;101852.13;5012154;28;20087;-79
2023/08/17 04:13:40;;;;;;;8.65;3.22;;;;;;;16.78;95.92;101851.28;5011596;28;20105;-79
2023/08/17 04:16:06;;;;;;;5.00;2.67;;;;;;;16.81;96.06;101855.50;5031274;28;20033;-79
2023/08/17 04:18:31;;;;;;;6.95;2.90;;;;;;;16.80;96.51;101853.81;5038211;28;20087;-79
2023/08/17 04:20:56;;;;;;;3.85;2.60;;;;;;;16.75;96.53;101861.34;5052739;28;20549;-79
2023/08/17 04:23:22;;;;;;;5.50;2.65;;;;;;;16.71;96.71;101855.44;5052735;28;20103;-79
2023/08/17 04:25:48;;;;;;;12.70;3.72;;;;;;;16.68;97.13;101850.38;5034934;28;20117;-79
2023/08/17 04:28:13;;;;;;;9.05;3.08;;;;;;;16.60;97.10;101858.97;5036031;28;20480;-79
2023/08/17 04:30:39;;;;;;;8.45;2.88;;;;;;;16.66;97.30;101857.63;5032891;28;20026;-79
2023/08/17 04:33:05;;;;;;;4.85;2.50;;;;;;;16.59;97.41;101867.06;5032059;28;20033;-79
2023/08/17 04:35:30;;;;;;;8.18;3.08;;;;;;;16.52;97.76;101868.56;5066400;28;20481;-79
2023/08/17 04:37:55;;;;;;;6.90;3.40;;;;;;;16.53;98.05;101864.94;5050560;28;20053;-79
2023/08/17 04:40:21;;;;;;;7.35;3.20;;;;;;;16.48;98.24;101864.47;5051011;28;20052;-79
2023/08/17 04:42:46;;;;;;;6.97;3.20;;;;;;;16.50;98.47;101865.19;5021370;28;20509;-79
2023/08/17 04:45:12;;;;;;;7.07;2.83;;;;;;;16.51;98.07;101864.22;5013829;28;20036;-79
2023/08/17 04:47:38;;;;;;;8.50;3.17;;;;;;;16.46;97.91;101855.78;5031000;28;20065;-79
2023/08/17 04:50:04;;;;;;;5.43;2.95;;;;;;;16.45;98.40;101860.25;5042228;28;20389;-79
2023/08/17 04:52:31;;;;;;;5.15;2.60;;;;;;;16.41;98.46;101850.84;5051433;28;20079;-79
2023/08/17 04:54:57;;;;;;;6.78;3.03;;;;;;;16.40;98.21;101856.25;5047129;28;20481;-79
2023/08/17 04:57:22;;;;;;;7.53;2.80;;;;;;;16.40;97.83;101851.78;5049237;28;20043;-79
2023/08/17 04:59:47;;;;;;;6.35;2.90;;;;;;;16.42;98.09;101849.88;5026435;28;20115;-79
2023/08/17 05:02:13;;;;;;;6.90;2.88;;;;;;;16.41;98.07;101852.63;5029681;28;20033;-78
2023/08/17 05:04:39;;;;;;;4.53;2.38;;;;;;;16.43;98.05;101854.22;5030334;28;20036;-78
2023/08/17 05:07:05;;;;;;;6.75;2.72;;;;;;;16.42;97.72;101859.66;5063773;28;20440;-78
2023/08/17 05:09:30;;;;;;;5.28;2.97;;;;;;;16.44;97.90;101849.75;5064042;28;20029;-78
2023/08/17 05:11:56;;;;;;;9.48;2.92;;;;;;;16.46;98.12;101848.66;5037341;28;20035;-78
2023/08/17 05:14:21;;;;;;;6.45;2.72;;;;;;;16.44;98.22;101850.59;5034457;28;20088;-78
2023/08/17 05:16:46;;;;;;;9.80;2.67;;;;;;;16.52;97.87;101857.91;5027692;28;20552;-78
2023/08/17 05:19:12;;;;;;;6.43;2.65;;;;;;;16.52;97.90;101856.09;5038887;28;20044;-78
2023/08/17 05:21:37;;;;;;;6.22;2.85;;;;;;;16.51;97.58;101843.78;5045904;28;20017;-78
2023/08/17 05:24:04;;;;;;;7.88;2.83;;;;;;;16.50;97.33;101863.38;5050297;28;20024;-78
2023/08/17 05:26:29;;;;;;;6.90;2.97;;;;;;;16.52;97.48;101849.94;5039885;28;20061;-78
2023/08/17 05:28:55;;;;;;;6.57;3.15;;;;;;;16.56;97.59;101854.03;5049196;28;20128;-78
2023/08/17 05:31:20;;;;;;;5.43;3.10;;;;;;;16.58;97.44;101846.78;5034104;28;20029;-78
2023/08/17 05:33:46;;;;;;;5.30;3.00;;;;;;;16.66;97.10;101851.47;5036736;28;20080;-78
2023/08/17 05:36:13;;;;;;;7.32;2.83;;;;;;;16.66;96.97;101856.78;5048737;28;20025;-78
2023/08/17 05:38:38;;;;;;;6.22;3.33;;;;;;;16.65;96.43;101847.09;5051678;28;20405;-78
2023/08/17 05:41:04;;;;;;;5.55;2.95;;;;;;;16.64;96.33;101854.25;5051575;28;20021;-78
2023/08/17 05:43:29;;;;;;;7.60;2.90;;;;;;;16.69;96.54;101853.88;5047132;28;20033;-78
2023/08/17 05:45:57;;;;;;;9.15;3.33;;;;;;;16.70;96.84;101858.22;5045161;28;20085;-79
2023/08/17 05:48:22;;;;;;;8.15;3.20;;;;;;;16.72;96.60;101854.47;5024350;28;20083;-78
2023/08/17 05:50:47;;;;;;;7.45;3.22;;;;;;;16.76;96.32;101863.88;5030250;28;20021;-78
2023/08/17 05:53:13;;;;;;;5.45;2.97;;;;;;;16.78;96.70;101856.59;5048920;28;20439;-78
2023/08/17 05:55:38;;;;;;;5.63;2.90;;;;;;;16.88;95.67;101860.19;5050608;28;20035;-79
2023/08/17 05:58:04;;;;;;;7.43;3.83;;;;;;;16.92;96.35;101858.97;5047501;28;20028;-79
2023/08/17 06:00:30;;;;;;;5.82;3.15;;;;;;;16.94;96.29;101861.50;5045302;28;20032;-78
2023/08/17 06:03:00;;;;;;;8.07;3.05;;;;;;;17.04;95.52;101866.88;5030041;28;20555;-78
2023/08/17 06:05:26;;;;;;;9.05;3.30;;;;;;;17.13;95.29;101858.09;5022977;28;20028;-78
2023/08/17 06:07:52;;;;;;;5.50;3.20;;;;;;;17.21;94.23;101863.59;5039640;28;20125;-78
2023/08/17 06:10:17;;;;;;;8.63;3.60;;;;;;;17.25;94.17;101865.03;5050109;28;20104;-78
2023/08/17 06:12:43;;;;;;;6.10;3.47;;;;;;;17.23;93.98;101867.00;5046304;28;20028;-79
2023/08/17 06:15:09;;;;;;;7.60;3.47;;;;;;;17.21;94.58;101880.44;5030118;28;20477;-79
2023/08/17 06:17:34;;;;;;;6.57;3.28;;;;;;;17.23;95.10;101878.47;5061276;28;20029;-79
2023/08/17 06:20:00;;;;;;;8.93;3.28;;;;;;;17.25;94.58;101875.69;5029353;28;20076;-79
2023/08/17 06:22:25;;;;;;;7.70;3.28;;;;;;;17.21;94.30;101874.22;5060202;28;20022;-79
2023/08/17 06:24:50;;;;;;;6.57;3.30;;;;;;;17.29;95.05;101873.59;5021310;28;20490;-79
2023/08/17 06:27:16;;;;;;;7.57;3.30;;;;;;;17.31;94.33;101879.63;5029875;28;20427;-79
2023/08/17 06:29:44;;;;;;;9.35;3.38;;;;;;;17.32;94.78;101871.53;5080238;28;20048;-80
2023/08/17 06:32:10;;;;;;;9.57;3.30;;;;;;;17.41;95.00;101876.03;5039040;28;20030;-79
2023/08/17 06:34:35;;;;;;;8.02;3.30;;;;;;;17.44;94.39;101866.94;5050402;28;20033;-78
2023/08/17 06:37:03;;;;;;;8.18;3.60;;;;;;;17.46;93.95;101868.50;5042128;28;20404;-79
2023/08/17 06:39:29;;;;;;;5.90;3.55;;;;;;;17.41;93.70;101877.84;5037136;28;20057;-79
2023/08/17 06:41:54;;;;;;;6.20;3.53;;;;;;;17.41;94.00;101870.72;5022281;28;20065;-79
2023/08/17 06:44:20;;;;;;;8.10;3.50;;;;;;;17.50;94.18;101869.91;5044085;28;20044;-79
2023/08/17 06:46:46;;;;;;;8.77;3.42;;;;;;;17.58;93.73;101879.03;5047852;28;20095;-80
2023/08/17 06:49:12;;;;;;;5.47;3.30;;;;;;;17.73;93.17;101875.09;5050087;28;20028;-79
2023/08/17 06:51:40;;;;;;;6.18;3.72;;;;;;;17.75;92.84;101878.47;5046206;28;20435;-80
2023/08/17 06:54:10;;;;;;;5.10;3.50;;;;;;;17.83;93.36;101878.63;5047018;28;20063;-79
2023/08/17 06:56:35;;;;;;;7.90;3.92;;;;;;;17.77;92.37;101869.38;5033242;28;20355;-79
2023/08/17 06:59:01;;;;;;;11.07;4.28;;;;;;;17.72;92.26;101873.41;5034814;28;20102;-80
2023/08/17 07:01:28;;;;;;;6.32;3.60;;;;;;;17.81;92.75;101877.91;5040421;28;20037;-80
2023/08/17 07:03:53;;;;;;;8.40;4.10;;;;;;;17.85;91.85;101874.00;5028474;28;20044;-80
2023/08/17 07:06:19;;;;;;;5.38;3.35;;;;;;;17.79;91.87;101869.22;5027152;28;20447;-81
2023/08/17 07:08:44;;;;;;;7.13;3.47;;;;;;;17.90;92.63;101882.44;5027854;28;20469;-82
2023/08/17 07:11:10;;;;;;;8.13;3.50;;;;;;;18.00;92.50;101872.63;5029475;28;20029;-82
2023/08/17 07:13:36;;;;;;;9.18;3.50;;;;;;;17.93;91.50;101871.50;5025724;28;20032;-83
2023/08/17 07:16:01;;;;;;;7.28;3.28;;;;;;;17.95;91.47;101876.69;5048752;28;20389;-82
2023/08/17 07:18:27;;;;;;;8.60;4.07;;;;;;;17.93;92.27;101876.81;5049264;28;20272;-83
2023/08/17 07:20:52;;;;;;;10.55;4.50;;;;;;;17.97;92.42;101874.72;5043419;28;20068;-83
2023/08/17 07:23:17;;;;;;;6.30;3.85;;;;;;;17.85;92.46;101879.34;5027749;28;20108;-81
2023/08/17 07:25:44;;;;;;;9.23;3.42;;;;;;;17.94;92.99;101872.34;5039774;28;20029;-82
2023/08/17 07:28:09;;;;;;;6.63;3.72;;;;;;;17.98;92.69;101879.91;5042109;28;20025;-83
2023/08/17 07:30:35;;;;;;;7.75;4.00;;;;;;;18.03;92.26;101876.88;5023224;28;20470;-83
2023/08/17 07:33:00;;;;;;;9.40;3.83;;;;;;;18.08;91.82;101886.13;5027786;28;20029;-79
2023/08/17 07:35:25;;;;;;;7.72;3.80;;;;;;;18.02;91.37;101878.69;5027297;28;20056;-79
2023/08/17 07:37:51;;;;;;;6.80;3.33;;;;;;;18.12;92.83;101884.88;5027281;28;20037;-79
2023/08/17 07:40:16;;;;;;;9.70;4.72;;;;;;;18.17;91.92;101881.81;5033293;28;20071;-79
2023/08/17 07:42:41;;;;;;;7.80;3.92;;;;;;;18.26;91.11;101880.13;5031238;28;20029;-79
2023/08/17 07:45:11;;;;;;;6.88;4.10;;;;;;;18.32;91.32;101879.56;5059864;28;20020;-79
2023/08/17 07:47:36;;;;;;;11.60;4.00;;;;;;;18.32;91.25;101879.56;5028428;28;20055;-79
2023/08/17 07:50:03;;;;;;;10.93;4.65;;;;;;;18.31;90.63;101883.22;5040468;28;20030;-79
2023/08/17 07:52:29;;;;;;;9.38;4.60;;;;;;;18.40;90.79;101880.56;5029052;28;20021;-78
2023/08/17 07:54:54;;;;;;;8.15;4.10;;;;;;;18.51;90.27;101886.75;5037863;28;20035;-78
2023/08/17 07:57:20;;;;;;;6.70;3.80;;;;;;;18.50;90.20;101890.41;5023281;28;20116;-78
2023/08/17 07:59:45;;;;;;;7.40;3.80;;;;;;;18.59;89.97;101885.06;5017795;28;20104;-79
2023/08/17 08:02:10;;;;;;;7.75;3.78;;;;;;;18.67;88.74;101889.72;5043566;28;20115;-79
2023/08/17 08:04:36;;;;;;;8.27;4.28;;;;;;;18.72;88.65;101885.66;5030840;28;20027;-78
2023/08/17 08:07:01;;;;;;;11.43;4.10;;;;;;;18.68;88.07;101886.91;5044742;28;20095;-78
2023/08/17 08:09:27;;;;;;;8.80;3.85;;;;;;;18.70;88.80;101887.63;5039819;28;20481;-80
2023/08/17 08:11:52;;;;;;;10.00;4.10;;;;;;;18.78;88.50;101882.41;5028037;28;20018;-80
2023/08/17 08:14:17;;;;;;;9.32;4.07;;;;;;;18.71;87.78;101878.63;5039371;28;20063;-78
2023/08/17 08:16:43;;;;;;;9.88;4.05;;;;;;;18.88;88.56;101881.59;5032597;28;20385;-79
2023/08/17 08:19:08;;;;;;;7.15;3.75;;;;;;;19.04;87.56;101880.00;5031799;28;20025;-78
2023/08/17 08:21:34;;;;;;;8.32;3.85;;;;;;;19.02;85.93;101875.81;5032618;28;20021;-77
2023/08/17 08:23:59;;;;;;;8.90;3.65;;;;;;;18.99;86.48;101876.94;5032377;28;20025;-77
2023/08/17 08:26:24;;;;;;;9.73;3.47;;;;;;;19.06;87.43;101874.53;5031660;28;20030;-76
2023/08/17 08:28:50;;;;;;;8.05;4.18;;;;;;;19.09;85.75;101882.25;5042762;28;20064;-77
2023/08/17 08:31:15;;;;;;;6.45;3.83;;;;;;;19.07;86.41;101884.22;5039996;28;20025;-77
2023/08/17 08:33:40;;;;;;;7.90;3.67;;;;;;;18.95;86.38;101877.38;5031962;28;20026;-78
2023/08/17 08:36:06;;;;;;;12.23;4.18;;;;;;;18.87;85.44;101883.41;5032414;28;20041;-77
2023/08/17 08:38:32;;;;;;;7.00;3.85;;;;;;;18.93;86.25;101888.19;5048861;28;20040;-77
2023/08/17 08:40:58;;;;;;;9.45;3.70;;;;;;;18.96;86.73;101881.72;5026604;28;20037;-77
2023/08/17 08:43:24;;;;;;;7.72;3.90;;;;;;;19.01;87.15;101882.13;5033606;28;20029;-80
2023/08/17 08:45:51;;;;;;;7.47;4.05;;;;;;;18.98;86.48;101891.25;5030400;28;20032;-79
2023/08/17 08:48:18;;;;;;;9.02;4.60;;;;;;;18.88;85.82;101884.25;5032398;28;20104;-81
2023/08/17 08:50:47;;;;;;;9.77;4.20;;;;;;;18.88;86.80;101878.94;5034214;28;20390;-78
2023/08/17 08:53:17;;;;;;;7.63;3.92;;;;;;;18.87;87.27;101871.91;5038910;28;20039;-76
2023/08/17 08:55:55;;;;;;;11.82;4.50;;;;;;;18.70;87.33;101874.28;5041798;28;20022;-78
2023/08/17 08:58:21;;;;;;;8.15;4.03;;;;;;;18.69;88.71;101875.28;5042555;28;20063;-78
2023/08/17 09:00:49;;;;;;;7.93;4.35;;;;;;;18.62;88.04;101868.81;5030558;28;20025;-82
2023/08/17 09:03:20;;;;;;;8.10;4.32;;;;;;;18.60;89.28;101870.75;5029154;28;20029;-85
2023/08/17 09:05:49;;;;;;;7.38;4.15;;;;;;;18.57;89.16;101876.38;5018497;28;20097;-80
2023/08/17 09:08:22;;;;;;;8.15;4.10;;;;;;;18.57;88.37;101865.72;5039958;28;20029;-79
2023/08/17 09:10:48;;;;;;;7.22;4.25;;;;;;;18.62;88.89;101863.50;5030503;28;20525;-77
2023/08/17 09:13:13;;;;;;;8.05;3.97;;;;;;;18.69;89.53;101864.59;5030021;28;20108;-77
2023/08/17 09:15:39;;;;;;;8.77;4.68;;;;;;;18.73;89.50;101854.50;5029948;28;20528;-77
2023/08/17 09:18:10;;;;;;;9.05;4.18;;;;;;;18.74;89.38;101859.69;5030349;28;20168;-78
2023/08/17 09:20:40;;;;;;;12.32;5.13;;;;;;;18.66;88.63;101856.91;5026494;28;20431;-78
2023/08/17 09:23:21;;;;;;;9.63;4.85;;;;;;;18.61;88.49;101872.44;5030283;28;20022;-82
2023/08/17 09:25:59;;;;;;;9.60;5.50;;;;;;;18.56;89.12;101868.53;5031390;28;20103;-78
2023/08/17 09:28:25;;;;;;;12.40;4.97;;;;;;;18.60;89.34;101862.75;5036724;28;20049;-78
2023/08/17 09:31:03;;;;;;;7.85;4.45;;;;;;;18.57;89.02;101859.53;5031372;28;20063;-76
2023/08/17 09:33:32;;;;;;;10.02;5.15;;;;;;;18.43;89.30;101864.31;5014689;28;20088;-76
2023/08/17 09:35:59;;;;;;;11.85;5.07;;;;;;;18.51;90.10;101871.59;5030751;28;20060;-77
2023/08/17 09:38:26;;;;;;;8.30;4.95;;;;;;;18.39;89.42;101873.53;5031625;28;20017;-76
2023/08/17 09:40:52;;;;;;;12.73;5.47;;;;;;;18.40;90.05;101858.41;5031127;28;20053;-78
2023/08/17 09:43:18;;;;;;;12.63;6.32;;;;;;;18.33;89.67;101862.59;5029483;28;20067;-77
2023/08/17 09:45:49;;;;;;;14.15;6.75;;;;;;;18.27;90.18;101863.16;5029439;28;20036;-77
2023/08/17 09:48:17;;;;;;;13.18;6.80;;;;;;;18.28;90.34;101865.69;5028008;28;20025;-80
2023/08/17 09:50:43;;;;;;;14.43;6.68;;;;;;;18.40;90.22;101863.72;5024814;28;20022;-79
2023/08/17 09:53:16;;;;;;;15.40;7.32;;;;;;;18.37;90.00;101862.19;5030422;28;20056;-79
2023/08/17 09:55:45;;;;;;;15.18;6.93;;;;;;;18.50;90.17;101859.25;5035504;28;20025;-80
2023/08/17 09:58:17;;;;;;;13.60;6.70;;;;;;;18.52;89.50;101857.28;5029591;28;20106;-80
2023/08/17 10:00:51;;;;;;;19.05;8.85;;;;;;;18.52;90.27;101859.97;5037670;28;20478;-80
2023/08/17 10:03:18;;;;;;;17.08;8.60;;;;;;;18.41;89.69;101860.94;5031635;28;20033;-81
2023/08/17 10:05:47;;;;;;;17.02;8.70;;;;;;;18.35;90.08;101857.97;5029122;28;20022;-80
2023/08/17 10:08:19;;;;;;;17.48;6.88;;;;;;;18.30;90.88;101849.56;5028535;28;20021;-80
2023/08/17 10:10:45;;;;;;;17.23;8.40;;;;;;;18.36;90.81;101841.00;5028769;28;20393;-80
2023/08/17 10:13:30;;;;;;;13.45;7.32;;;;;;;18.39;91.21;101843.38;5030222;28;20048;-80
2023/08/17 10:15:56;;;;;;;14.50;7.25;;;;;;;18.55;90.98;101846.34;5029668;28;20022;-80
2023/08/17 10:18:40;;;;;;;13.93;7.93;;;;;;;18.56;90.62;101840.03;5027400;28;20048;-80
2023/08/17 10:21:21;;;;;;;14.43;7.28;;;;;;;18.65;90.63;101841.03;5042825;28;20406;-80
2023/08/17 10:23:47;;;;;;;15.13;7.72;;;;;;;18.68;89.92;101838.09;5013343;28;20368;-80
2023/08/17 10:26:13;;;;;;;15.00;7.50;;;;;;;18.69;90.38;101837.94;5028137;28;20036;-80
2023/08/17 10:28:39;;;;;;;14.70;8.10;;;;;;;18.66;89.71;101840.06;5035586;28;20026;-81
2023/08/17 10:31:05;;;;;;;13.93;7.80;;;;;;;18.55;90.63;101838.34;5040613;28;20039;-80
2023/08/17 10:33:31;;;;;;;14.95;8.30;;;;;;;18.54;90.39;101838.50;5027683;28;20060;-80
2023/08/17 10:35:57;;;;;;;12.82;7.88;;;;;;;18.55;91.08;101835.69;5029707;28;20474;-82
2023/08/17 10:38:23;;;;;;;11.70;7.22;;;;;;;18.54;91.51;101834.00;5022145;28;20324;-80
2023/08/17 10:41:11;;;;;;;17.08;7.50;;;;;;;18.65;91.26;101841.88;5029054;28;20144;-77
2023/08/17 10:44:03;;;;;;;16.52;8.35;;;;;;;18.72;91.31;101843.00;5033555;28;20021;-77
2023/08/17 10:46:36;;;;;;;14.07;8.10;;;;;;;18.75;90.74;101845.38;5032036;28;20057;-79
2023/08/17 10:49:05;;;;;;;15.88;7.63;;;;;;;18.87;90.64;101842.56;5029929;28;20036;-78
2023/08/17 10:51:31;;;;;;;13.70;7.45;;;;;;;18.92;90.40;101825.16;5028897;28;20108;-78
2023/08/17 10:54:00;;;;;;;14.88;7.82;;;;;;;18.97;89.47;101830.06;5025212;28;20175;-79
2023/08/17 10:56:28;;;;;;;14.77;7.70;;;;;;;19.06;89.69;101834.50;5055011;28;20033;-79
2023/08/17 10:58:53;;;;;;;12.93;7.70;;;;;;;19.09;89.75;101828.88;5029828;28;20041;-78
2023/08/17 11:01:36;;;;;;;14.98;8.15;;;;;;;19.17;89.58;101829.00;5029055;28;20037;-76
2023/08/17 11:04:22;;;;;;;;;;;;;;;19.29;89.11;101825.19;5030193;28;20033;-78
2023/08/17 11:07:00;;;;;;;12.32;7.93;;;;;;;19.16;89.56;101831.81;5028797;28;19915;-78
2023/08/17 11:09:26;;;;;;;10.60;7.20;;;;;;;19.19;89.81;101828.84;5030673;28;20434;-78
2023/08/17 11:11:54;;;;;;;15.75;9.65;;;;;;;19.12;88.68;101830.44;5025473;28;20113;-76
2023/08/17 11:14:20;;;;;;;13.88;9.23;;;;;;;19.23;89.25;101831.13;5031275;28;20033;-77
2023/08/17 11:16:47;;;;;;;12.98;8.50;;;;;;;19.26;89.49;101838.00;5028719;28;20021;-76
2023/08/17 11:19:12;;;;;;;14.65;9.20;;;;;;;19.20;89.14;101846.53;5026459;28;20018;-79
2023/08/17 11:21:37;;;;;;;12.70;8.77;;;;;;;19.20;90.05;101835.88;5028852;28;20037;-76
2023/08/17 11:24:08;;;;;;;15.77;9.07;;;;;;;19.28;90.21;101839.53;5027803;28;20021;-76